»·PEaware :: N235B KSMX-KBFL

N235B :: KSMX-KBFL

FLIGHT INFORMATION

Flight Status: Arrived
Operator: Privately registered:
United States
More flights under this callsign
Pilot: Jason D. (29273)
Aircraft: ECLIPSE 500
(EA50)
More flights by this aircraft type
Origin: KSMX Santa Maria Pub/Capt Hancock
United States
Destination: KBFL Meadows
United States
More flights between these airports :: More routes between these airports
Route: KSMX DCT KBFL
File this flight plan on PilotEdge
Remarks:
Altitude:
(Current/Filed)
7,500ft
Speed:
(Current/Filed)
120kts
Departed: 08-Aug-20 02:49 PM
Arrived: 08-Aug-20 03:16 PM
Distance/Time
Traveled:
76nm/0:27
Distance/Time
To Go:
Arrived

Flight Plot

Page will automatically refresh every two minutes.

Flight plan parsing failed; only flown route is shown


Map Options




Map Legend


Flown Route
Filed Route
Departure Airport
Arrival Airport
Navaid (VOR, NDB)
Fix

Horizontal Profiles

Position Reports

Time Latitude Longitude Heading Altitude Ground
Speed
08-Aug-20 14:10 34.900732 -120.451558 228 264ft 0kts
08-Aug-20 14:11 34.900732 -120.451558 228 264ft 0kts
08-Aug-20 14:12 34.900732 -120.451558 228 264ft 0kts
08-Aug-20 14:13 34.900732 -120.451558 228 264ft 0kts
08-Aug-20 14:14 34.900732 -120.451558 228 264ft 0kts
08-Aug-20 14:15 34.900732 -120.451558 228 264ft 0kts
08-Aug-20 14:16 34.900732 -120.451558 228 264ft 0kts
08-Aug-20 14:17 34.900732 -120.451558 228 264ft 0kts
08-Aug-20 14:18 34.900732 -120.451558 228 264ft 0kts
08-Aug-20 14:19 34.900732 -120.451558 228 264ft 0kts
08-Aug-20 14:20 34.900732 -120.451558 228 264ft 0kts
08-Aug-20 14:21 34.900732 -120.451558 228 264ft 0kts
08-Aug-20 14:22 34.900732 -120.451558 228 264ft 0kts
08-Aug-20 14:23 34.900732 -120.451558 228 264ft 0kts
08-Aug-20 14:24 34.900732 -120.451558 228 264ft 0kts
08-Aug-20 14:25 34.900732 -120.451558 228 264ft 0kts
08-Aug-20 14:26 34.900732 -120.451558 228 264ft 0kts
08-Aug-20 14:27 34.900732 -120.451558 228 264ft 0kts
08-Aug-20 14:28 34.900732 -120.451558 228 264ft 0kts
08-Aug-20 14:29 34.900732 -120.451558 228 264ft 0kts
08-Aug-20 14:30 34.900732 -120.451558 228 264ft 0kts
08-Aug-20 14:31 34.900732 -120.451558 228 264ft 0kts
08-Aug-20 14:32 34.900732 -120.451558 228 264ft 0kts
08-Aug-20 14:33 34.900732 -120.451558 228 264ft 0kts
08-Aug-20 14:34 34.900732 -120.451558 228 264ft 0kts
08-Aug-20 14:35 34.900732 -120.451558 228 264ft 0kts
08-Aug-20 14:36 34.900732 -120.451558 228 264ft 0kts
08-Aug-20 14:37 34.900732 -120.451558 228 264ft 0kts
08-Aug-20 14:38 34.900732 -120.451558 228 264ft 0kts
08-Aug-20 14:39 34.900732 -120.451558 228 264ft 0kts
08-Aug-20 14:40 34.900732 -120.451558 228 264ft 0kts
08-Aug-20 14:41 34.900732 -120.451558 228 264ft 0kts
08-Aug-20 14:42 34.899920 -120.451450 199 264ft 10kts
08-Aug-20 14:43 34.895875 -120.447043 136 264ft 25kts
08-Aug-20 14:44 34.893412 -120.445228 200 264ft 0kts
08-Aug-20 14:45 34.893412 -120.445228 200 264ft 0kts
08-Aug-20 14:46 34.893370 -120.446578 312 264ft 7kts
08-Aug-20 14:47 34.893438 -120.446668 313 264ft 7kts
08-Aug-20 14:48 34.913521 -120.469825 322 1134ft 120kts
08-Aug-20 14:49 34.948588 -120.478320 16 2772ft 144kts
08-Aug-20 14:50 34.984981 -120.460543 14 4138ft 158kts
08-Aug-20 14:51 35.033395 -120.464416 326 4951ft 197kts
08-Aug-20 14:52 35.068790 -120.435386 89 6156ft 216kts
08-Aug-20 14:53 35.065067 -120.362460 98 6775ft 218kts
08-Aug-20 14:54 35.052868 -120.285326 100 7515ft 244kts
08-Aug-20 14:55 35.048889 -120.195785 90 7525ft 280kts
08-Aug-20 14:56 35.056295 -120.098584 82 7508ft 292kts
08-Aug-20 14:57 35.070980 -120.004224 78 7493ft 270kts
08-Aug-20 14:58 35.091761 -119.918375 73 7493ft 258kts
08-Aug-20 14:59 35.116200 -119.838534 69 7489ft 254kts
08-Aug-20 15:00 35.145159 -119.760576 66 7482ft 252kts
08-Aug-20 15:01 35.175252 -119.683651 66 7465ft 249kts
08-Aug-20 15:02 35.204649 -119.610050 64 7448ft 237kts
08-Aug-20 15:03 35.240039 -119.543255 52 7433ft 233kts
08-Aug-20 15:04 35.284996 -119.486869 40 7428ft 231kts
08-Aug-20 15:05 35.315812 -119.421319 71 7428ft 227kts
08-Aug-20 15:07 35.336890 -119.349038 71 7428ft 227kts
08-Aug-20 15:08 35.358293 -119.275846 50 7429ft 224kts
08-Aug-20 15:09 35.380007 -119.206643 71 7425ft 217kts
08-Aug-20 15:10 35.398865 -119.142437 72 7370ft 196kts
08-Aug-20 15:11 35.415088 -119.076533 34 2419ft 290kts
08-Aug-20 15:12 35.376386 -119.044641 159 1975ft 148kts
08-Aug-20 15:13 35.384815 -119.016920 29 1409ft 107kts
08-Aug-20 15:14 35.405379 -119.026458 316 710ft 83kts
08-Aug-20 15:15 35.422508 -119.046128 313 513ft 77kts
08-Aug-20 15:16 35.427744 -119.051153 40 474ft 5kts
08-Aug-20 15:17 35.427764 -119.051132 40 474ft 0kts
08-Aug-20 15:18 35.427764 -119.051132 40 474ft 0kts
08-Aug-20 15:19 35.426291 -119.047188 135 476ft 31kts
08-Aug-20 15:20 35.424803 -119.046191 221 472ft 0kts
08-Aug-20 15:21 35.424787 -119.046209 222 472ft 3kts
08-Aug-20 15:22 35.424754 -119.052518 2 463ft 14kts
08-Aug-20 15:23 35.425883 -119.053340 213 466ft 0kts
08-Aug-20 15:24 35.427829 -119.055398 323 468ft 0kts
08-Aug-20 15:24 35.427829 -119.055398 323 468ft 0kts
08-Aug-20 15:26 35.427829 -119.055398 323 468ft 0kts
08-Aug-20 15:26 35.427829 -119.055398 323 468ft 0kts
08-Aug-20 15:27 35.427829 -119.055398 323 468ft 0kts
08-Aug-20 15:29 35.427829 -119.055398 323 468ft 0kts
08-Aug-20 15:29 35.427829 -119.055398 323 468ft 0kts

Navigation Log

Ident Type
Flight plan parsing failed, navigation log unavailable